createdAt,value
2023-04-10T00:00:29.075Z,27.35
2023-04-10T00:01:29.087Z,27.35
2023-04-10T00:02:29.352Z,27.36
2023-04-10T00:03:29.207Z,27.36
2023-04-10T00:04:29.213Z,27.38
2023-04-10T00:05:29.129Z,27.37
2023-04-10T00:06:29.079Z,27.37
2023-04-10T00:07:29.059Z,27.35
2023-04-10T00:08:29.044Z,27.38
2023-04-10T00:09:28.996Z,27.37
2023-04-10T00:10:28.968Z,27.37
2023-04-10T00:11:28.950Z,27.37
2023-04-10T00:12:28.922Z,27.39
2023-04-10T00:13:28.906Z,27.37
2023-04-10T00:14:28.858Z,27.39
2023-04-10T00:15:28.876Z,27.39
2023-04-10T00:16:28.833Z,27.36
2023-04-10T00:17:28.821Z,27.38
2023-04-10T00:18:28.765Z,27.39
2023-04-10T00:19:28.754Z,27.38
2023-04-10T00:20:28.779Z,27.39
2023-04-10T00:21:28.788Z,27.39
2023-04-10T00:22:28.803Z,27.38
2023-04-10T00:23:28.830Z,27.41
2023-04-10T00:24:28.845Z,27.40
2023-04-10T00:25:28.877Z,27.40
2023-04-10T00:26:28.880Z,27.40
2023-04-10T00:27:28.903Z,27.44
2023-04-10T00:28:28.914Z,27.42
2023-04-10T00:29:28.962Z,27.44
2023-04-10T00:30:28.972Z,27.42
2023-04-10T00:31:28.974Z,27.43
2023-04-10T00:32:29.026Z,27.44
2023-04-10T00:33:28.953Z,27.44
2023-04-10T00:34:28.942Z,27.43
2023-04-10T00:35:28.916Z,27.44
2023-04-10T00:36:28.865Z,27.43
2023-04-10T00:37:28.846Z,27.44
2023-04-10T00:38:28.847Z,27.43
2023-04-10T00:39:28.805Z,27.45
2023-04-10T00:40:28.807Z,27.43
2023-04-10T00:41:28.791Z,27.44
2023-04-10T00:42:28.742Z,27.42
2023-04-10T00:43:28.720Z,27.44
2023-04-10T00:44:28.689Z,27.44
2023-04-10T00:45:28.673Z,27.44
2023-04-10T00:46:28.710Z,27.45
2023-04-10T00:47:28.666Z,27.45
2023-04-10T00:48:28.678Z,27.44
2023-04-10T00:49:28.674Z,27.46
2023-04-10T00:50:28.696Z,27.47
2023-04-10T00:51:28.714Z,27.49
2023-04-10T00:52:28.748Z,27.48
2023-04-10T00:53:28.767Z,27.46
2023-04-10T00:54:28.763Z,27.46
2023-04-10T00:55:28.815Z,27.48
2023-04-10T00:56:28.808Z,27.48
2023-04-10T00:57:28.821Z,27.44
2023-04-10T00:58:28.865Z,27.46
2023-04-10T00:59:28.901Z,27.47
2023-04-10T01:00:28.851Z,27.49
2023-04-10T01:01:28.888Z,27.49
2023-04-10T01:02:28.989Z,27.49
2023-04-10T01:03:28.985Z,27.47
2023-04-10T01:04:28.944Z,27.49
2023-04-10T01:05:28.767Z,27.50
2023-04-10T01:06:28.739Z,27.47
2023-04-10T01:07:28.714Z,27.49
2023-04-10T01:08:28.744Z,27.49
2023-04-10T01:09:28.694Z,27.49
2023-04-10T01:10:28.657Z,27.49
2023-04-10T01:11:28.612Z,27.50
2023-04-10T01:12:28.605Z,27.50
2023-04-10T01:13:28.617Z,27.50
2023-04-10T01:14:28.540Z,27.49
2023-04-10T01:15:28.537Z,27.52
2023-04-10T01:16:28.521Z,27.50
2023-04-10T01:17:28.539Z,27.50
2023-04-10T01:18:28.444Z,27.50
2023-04-10T01:19:28.448Z,27.52
2023-04-10T01:20:28.479Z,27.51
2023-04-10T01:21:28.495Z,27.52
2023-04-10T01:22:28.519Z,27.51
2023-04-10T01:23:28.543Z,27.50
2023-04-10T01:24:28.597Z,27.50
2023-04-10T01:25:28.589Z,27.51
2023-04-10T01:26:28.558Z,27.52
2023-04-10T01:27:28.540Z,27.51
2023-04-10T01:28:28.501Z,27.51
2023-04-10T01:29:28.474Z,27.50
2023-04-10T01:30:28.452Z,27.53
2023-04-10T01:31:28.440Z,27.54
2023-04-10T01:32:28.408Z,27.53
2023-04-10T01:33:28.367Z,27.52
2023-04-10T01:34:28.382Z,27.52
2023-04-10T01:35:28.368Z,27.51
2023-04-10T01:36:28.299Z,27.52
2023-04-10T01:37:28.270Z,27.52
2023-04-10T01:38:28.262Z,27.51
2023-04-10T01:39:28.294Z,27.53
2023-04-10T01:40:28.310Z,27.53
2023-04-10T01:41:28.351Z,27.54
2023-04-10T01:42:28.368Z,27.54
2023-04-10T01:43:28.392Z,27.53
2023-04-10T01:44:28.434Z,27.53
2023-04-10T01:45:28.471Z,27.53
2023-04-10T01:46:28.503Z,27.53
2023-04-10T01:47:28.517Z,27.53
2023-04-10T01:48:28.499Z,27.54
2023-04-10T01:49:28.566Z,27.53
2023-04-10T01:50:28.573Z,27.53
2023-04-10T01:51:28.617Z,27.54
2023-04-10T01:52:28.624Z,27.55
2023-04-10T01:53:28.645Z,27.54
2023-04-10T01:54:28.669Z,27.56
2023-04-10T01:55:28.704Z,27.56
2023-04-10T01:56:28.731Z,27.55
2023-04-10T01:57:28.758Z,27.55
2023-04-10T01:58:28.801Z,27.56
2023-04-10T01:59:28.840Z,27.55
2023-04-10T02:00:28.917Z,27.55
2023-04-10T02:01:30.499Z,27.55
2023-04-10T02:02:29.063Z,27.54
2023-04-10T02:03:29.218Z,27.54
2023-04-10T02:04:29.114Z,27.57
2023-04-10T02:05:29.015Z,27.56
2023-04-10T02:06:29.037Z,27.57
2023-04-10T02:07:29.086Z,27.56
2023-04-10T02:08:29.106Z,27.57
2023-04-10T02:09:29.136Z,27.57
2023-04-10T02:10:29.159Z,27.56
2023-04-10T02:11:29.160Z,27.59
2023-04-10T02:12:29.127Z,27.57
2023-04-10T02:13:29.106Z,27.56
2023-04-10T02:14:29.108Z,27.59
2023-04-10T02:15:29.096Z,27.57
2023-04-10T02:16:29.097Z,27.57
2023-04-10T02:17:29.068Z,27.58
2023-04-10T02:18:29.025Z,27.56
2023-04-10T02:19:28.999Z,27.58
2023-04-10T02:20:28.977Z,27.56
2023-04-10T02:21:28.993Z,27.56
2023-04-10T02:22:28.959Z,27.58
2023-04-10T02:23:28.959Z,27.57
2023-04-10T02:24:29.025Z,27.57
2023-04-10T02:25:29.012Z,27.57
2023-04-10T02:26:29.046Z,27.60
2023-04-10T02:27:29.112Z,27.57
2023-04-10T02:28:29.096Z,27.57
2023-04-10T02:29:29.146Z,27.58
2023-04-10T02:30:29.172Z,27.57
2023-04-10T02:31:29.245Z,27.56
2023-04-10T02:32:29.299Z,27.54
2023-04-10T02:33:29.296Z,27.57
2023-04-10T02:34:29.311Z,27.57
2023-04-10T02:35:29.357Z,27.57
2023-04-10T02:36:29.384Z,27.58
2023-04-10T02:37:29.354Z,27.58
2023-04-10T02:38:29.349Z,27.58
2023-04-10T02:39:29.311Z,27.59
2023-04-10T02:40:29.289Z,27.58
2023-04-10T02:41:29.284Z,27.56
2023-04-10T02:42:29.279Z,27.55
2023-04-10T02:43:29.232Z,27.56
2023-04-10T02:44:29.271Z,27.35
2023-04-10T02:45:29.202Z,26.90
2023-04-10T02:46:29.226Z,26.82
2023-04-10T02:47:29.210Z,26.76
2023-04-10T02:48:29.156Z,25.94
2023-04-10T02:49:29.130Z,25.30
2023-04-10T02:50:29.131Z,24.87
2023-04-10T02:51:29.100Z,24.53
2023-04-10T02:52:29.074Z,24.29
2023-04-10T02:53:29.066Z,24.50
2023-04-10T02:54:29.032Z,24.34
2023-04-10T02:55:29.026Z,24.31
2023-04-10T02:56:29.006Z,24.21
2023-04-10T02:57:28.999Z,24.06
2023-04-10T02:58:28.957Z,23.98
2023-04-10T02:59:28.947Z,23.77
2023-04-10T03:00:28.950Z,23.66
2023-04-10T03:01:28.940Z,23.42
2023-04-10T03:02:28.990Z,23.11
2023-04-10T03:03:29.008Z,22.95
2023-04-10T03:04:29.055Z,22.80
2023-04-10T03:05:29.011Z,22.63
2023-04-10T03:06:28.957Z,22.55
2023-04-10T03:07:28.949Z,22.41
2023-04-10T03:08:28.941Z,22.52
2023-04-10T03:09:28.949Z,22.25
2023-04-10T03:10:28.966Z,22.12
2023-04-10T03:11:29.062Z,22.27
2023-04-10T03:12:29.046Z,22.12
2023-04-10T03:13:29.075Z,22.04
2023-04-10T03:14:29.040Z,22.02
2023-04-10T03:15:29.028Z,21.83
2023-04-10T03:16:29.070Z,21.56
2023-04-10T03:17:29.126Z,21.71
2023-04-10T03:18:29.020Z,21.80
2023-04-10T03:19:29.011Z,21.55
2023-04-10T03:20:28.989Z,21.48
2023-04-10T03:21:28.990Z,21.41
2023-04-10T03:22:28.957Z,21.29
2023-04-10T03:23:28.935Z,21.28
2023-04-10T03:24:28.958Z,21.15
2023-04-10T03:25:28.918Z,20.93
2023-04-10T03:26:28.881Z,20.93
2023-04-10T03:27:28.869Z,20.92
2023-04-10T03:28:28.841Z,21.00
2023-04-10T03:29:28.830Z,20.89
2023-04-10T03:30:28.814Z,20.94
2023-04-10T03:31:28.827Z,20.78
2023-04-10T03:32:28.778Z,20.73
2023-04-10T03:33:28.764Z,20.73
2023-04-10T03:34:28.729Z,20.75
2023-04-10T03:35:28.707Z,20.77
2023-04-10T03:36:28.711Z,20.54
2023-04-10T03:37:28.686Z,20.64
2023-04-10T03:38:28.665Z,20.54
2023-04-10T03:39:28.645Z,20.50
2023-04-10T03:40:28.644Z,20.46
2023-04-10T03:41:28.611Z,20.38
2023-04-10T03:42:28.583Z,20.28
2023-04-10T03:43:28.586Z,20.33
2023-04-10T03:44:28.562Z,20.24
2023-04-10T03:45:28.535Z,20.24
2023-04-10T03:46:28.548Z,20.22
2023-04-10T03:47:28.525Z,20.10
2023-04-10T03:48:28.630Z,20.08
2023-04-10T03:49:28.518Z,20.13
2023-04-10T03:50:28.539Z,20.07
2023-04-10T03:51:28.536Z,20.09
2023-04-10T03:52:28.562Z,19.99
2023-04-10T03:53:28.585Z,20.05
2023-04-10T03:54:28.586Z,19.92
2023-04-10T03:55:28.602Z,19.95
2023-04-10T03:56:28.594Z,20.00
2023-04-10T03:57:28.567Z,19.99
2023-04-10T03:58:28.543Z,19.93
2023-04-10T03:59:37.762Z,19.90
2023-04-10T04:00:29.529Z,19.87
2023-04-10T04:01:28.476Z,19.85
2023-04-10T04:02:28.563Z,19.96
2023-04-10T04:03:28.568Z,19.92
2023-04-10T04:04:28.615Z,19.74
2023-04-10T04:05:28.435Z,19.76
2023-04-10T04:06:28.444Z,19.80
2023-04-10T04:07:28.403Z,19.79
2023-04-10T04:08:28.405Z,19.74
2023-04-10T04:09:28.404Z,19.64
2023-04-10T04:10:28.384Z,19.74
2023-04-10T04:11:28.386Z,19.66
2023-04-10T04:12:28.357Z,19.67
2023-04-10T04:13:28.330Z,19.71
2023-04-10T04:14:28.342Z,19.59
2023-04-10T04:15:28.308Z,19.66
2023-04-10T04:16:28.336Z,19.64
2023-04-10T04:17:28.281Z,19.56
2023-04-10T04:18:28.264Z,19.53
2023-04-10T04:19:28.271Z,19.48
2023-04-10T04:20:28.243Z,19.52
2023-04-10T04:21:28.230Z,19.47
2023-04-10T04:22:28.225Z,19.50
2023-04-10T04:23:28.216Z,19.49
2023-04-10T04:24:28.205Z,19.43
2023-04-10T04:25:28.219Z,19.43
2023-04-10T04:26:28.174Z,19.38
2023-04-10T04:27:28.182Z,19.41
2023-04-10T04:28:29.589Z,19.36
2023-04-10T04:29:28.154Z,19.44
2023-04-10T04:30:28.136Z,19.44
2023-04-10T04:31:28.147Z,19.36
2023-04-10T04:32:28.155Z,19.25
2023-04-10T04:33:28.106Z,19.26
2023-04-10T04:34:28.122Z,19.30
2023-04-10T04:35:28.209Z,19.33
2023-04-10T04:36:28.175Z,19.21
2023-04-10T04:37:28.219Z,19.21
2023-04-10T04:38:28.239Z,19.26
2023-04-10T04:39:28.261Z,19.23
2023-04-10T04:40:28.304Z,19.21
2023-04-10T04:41:28.361Z,19.13
2023-04-10T04:42:28.358Z,19.13
2023-04-10T04:43:28.390Z,19.19
2023-04-10T04:44:28.421Z,19.09
2023-04-10T04:45:28.458Z,19.16
2023-04-10T04:46:28.554Z,19.19
2023-04-10T04:47:28.466Z,19.16
2023-04-10T04:48:28.408Z,19.08
2023-04-10T04:49:28.402Z,19.05
2023-04-10T04:50:28.400Z,19.05
2023-04-10T04:51:28.384Z,19.01
2023-04-10T04:52:28.385Z,19.08
2023-04-10T04:53:28.370Z,19.09
2023-04-10T04:54:28.344Z,18.90
2023-04-10T04:55:28.361Z,18.93
2023-04-10T04:56:28.321Z,19.04
2023-04-10T04:57:28.305Z,18.98
2023-04-10T04:58:28.307Z,19.04
2023-04-10T04:59:28.324Z,19.03
2023-04-10T05:00:28.363Z,18.93
2023-04-10T05:01:28.389Z,18.92
2023-04-10T05:02:28.556Z,18.98
2023-04-10T05:03:28.592Z,18.99
2023-04-10T05:04:28.348Z,18.96
2023-04-10T05:05:28.289Z,18.94
2023-04-10T05:06:28.306Z,18.85
2023-04-10T05:07:28.299Z,18.93
2023-04-10T05:08:28.269Z,18.85
2023-04-10T05:09:28.267Z,18.89
2023-04-10T05:10:28.237Z,18.97
2023-04-10T05:11:28.235Z,18.80
2023-04-10T05:12:28.214Z,18.76
2023-04-10T05:13:28.211Z,18.84
2023-04-10T05:14:28.215Z,18.80
2023-04-10T05:15:28.249Z,18.81
2023-04-10T05:16:28.262Z,18.83
2023-04-10T05:17:28.311Z,18.70
2023-04-10T05:18:28.357Z,18.73
2023-04-10T05:19:28.374Z,18.80
2023-04-10T05:20:28.395Z,18.77
2023-04-10T05:21:28.437Z,18.81
2023-04-10T05:22:28.465Z,18.77
2023-04-10T05:23:28.524Z,18.74
2023-04-10T05:24:28.536Z,18.73
2023-04-10T05:25:28.587Z,18.75
2023-04-10T05:26:28.624Z,18.75
2023-04-10T05:27:28.672Z,18.79
2023-04-10T05:28:28.716Z,18.71
2023-04-10T05:29:28.721Z,18.64
2023-04-10T05:30:28.778Z,18.72
2023-04-10T05:31:28.839Z,18.71
2023-04-10T05:32:28.843Z,18.72
2023-04-10T05:33:28.845Z,18.72
2023-04-10T05:34:28.892Z,18.61
2023-04-10T05:35:28.915Z,18.62
2023-04-10T05:36:28.969Z,18.67
2023-04-10T05:37:29.008Z,18.61
2023-04-10T05:38:29.041Z,18.71
2023-04-10T05:39:29.064Z,18.64
2023-04-10T05:40:29.112Z,18.62
2023-04-10T05:41:29.243Z,18.53
2023-04-10T05:42:29.187Z,18.58
2023-04-10T05:43:29.223Z,18.65
2023-04-10T05:44:29.260Z,18.60
2023-04-10T05:45:29.287Z,18.55
2023-04-10T05:46:29.424Z,18.58
2023-04-10T05:47:29.415Z,18.57
2023-04-10T05:48:29.447Z,18.60
2023-04-10T05:49:29.466Z,18.60
2023-04-10T05:50:30.619Z,18.65
2023-04-10T05:51:29.534Z,18.57
2023-04-10T05:52:29.554Z,18.54
2023-04-10T05:53:29.594Z,18.54
2023-04-10T05:54:29.608Z,18.57
2023-04-10T05:55:29.646Z,18.62
2023-04-10T05:56:29.715Z,18.57
2023-04-10T05:57:29.729Z,18.52
2023-04-10T05:58:29.767Z,18.54
2023-04-10T05:59:29.791Z,18.60
2023-04-10T06:00:29.858Z,18.59
2023-04-10T06:01:29.905Z,18.56
2023-04-10T06:02:30.042Z,18.53
2023-04-10T06:03:30.017Z,18.53
2023-04-10T06:04:30.097Z,18.55
2023-04-10T06:05:30.076Z,18.53
2023-04-10T06:06:30.076Z,18.49
2023-04-10T06:07:30.105Z,18.51
2023-04-10T06:08:30.172Z,18.47
2023-04-10T06:09:30.174Z,18.54
2023-04-10T06:10:30.257Z,18.56
2023-04-10T06:11:30.276Z,18.53
2023-04-10T06:12:30.325Z,18.57
2023-04-10T06:13:30.372Z,18.60
2023-04-10T06:14:30.378Z,18.54
2023-04-10T06:15:30.443Z,18.55
2023-04-10T06:16:30.565Z,18.61
2023-04-10T06:17:30.523Z,18.58
2023-04-10T06:18:30.567Z,18.62
2023-04-10T06:19:30.602Z,18.54
2023-04-10T06:20:30.679Z,18.49
2023-04-10T06:21:30.699Z,18.56
2023-04-10T06:22:30.742Z,18.57
2023-04-10T06:23:30.780Z,18.57
2023-04-10T06:24:30.823Z,18.55
2023-04-10T06:25:30.871Z,18.51
2023-04-10T06:26:30.926Z,18.47
2023-04-10T06:27:30.941Z,18.52
2023-04-10T06:28:30.949Z,18.56
2023-04-10T06:29:30.917Z,18.54
2023-04-10T06:30:31.111Z,18.53
2023-04-10T06:31:30.927Z,18.53
2023-04-10T06:32:30.927Z,18.54
2023-04-10T06:33:30.873Z,18.56
2023-04-10T06:34:30.855Z,18.55
2023-04-10T06:35:30.835Z,18.61
2023-04-10T06:36:30.837Z,18.54
2023-04-10T06:37:30.825Z,18.57
2023-04-10T06:38:30.819Z,18.56
2023-04-10T06:39:30.850Z,18.55
2023-04-10T06:40:30.899Z,18.52
2023-04-10T06:41:30.926Z,18.51
2023-04-10T06:42:30.988Z,18.53
2023-04-10T06:43:31.016Z,18.52
2023-04-10T06:44:31.054Z,18.54
2023-04-10T06:45:31.063Z,18.52
2023-04-10T06:46:31.179Z,18.52
2023-04-10T06:47:31.190Z,18.50
2023-04-10T06:48:31.174Z,18.50
2023-04-10T06:49:31.224Z,18.56
2023-04-10T06:50:33.461Z,18.54
2023-04-10T06:51:31.302Z,18.53
2023-04-10T06:52:31.365Z,18.52
2023-04-10T06:53:31.379Z,18.51
2023-04-10T06:54:31.417Z,18.50
2023-04-10T06:55:31.459Z,18.46
2023-04-10T06:56:31.498Z,18.42
2023-04-10T06:57:31.544Z,18.41
2023-04-10T06:58:31.584Z,18.40
2023-04-10T06:59:31.620Z,18.40
2023-04-10T07:00:31.678Z,18.42
2023-04-10T07:01:31.718Z,18.42
2023-04-10T07:02:31.780Z,18.47
2023-04-10T07:03:31.796Z,18.47
2023-04-10T07:04:31.794Z,18.51
2023-04-10T07:05:31.828Z,18.53
2023-04-10T07:06:31.862Z,18.56
2023-04-10T07:07:31.922Z,18.59
2023-04-10T07:08:31.941Z,18.62
2023-04-10T07:09:31.967Z,18.64
2023-04-10T07:10:31.988Z,18.78
2023-04-10T07:11:32.012Z,18.72
2023-04-10T07:12:32.060Z,18.70
2023-04-10T07:13:32.088Z,18.77
2023-04-10T07:14:32.097Z,18.78
2023-04-10T07:15:32.123Z,18.73
2023-04-10T07:16:32.167Z,18.66
2023-04-10T07:17:32.225Z,18.65
2023-04-10T07:18:32.200Z,18.69
2023-04-10T07:19:32.250Z,18.70
2023-04-10T07:20:32.278Z,18.71
2023-04-10T07:21:32.315Z,18.78
2023-04-10T07:22:32.356Z,18.77
2023-04-10T07:23:32.390Z,18.76
2023-04-10T07:24:32.439Z,18.83
2023-04-10T07:25:32.488Z,18.87
2023-04-10T07:26:32.506Z,18.87
2023-04-10T07:27:32.551Z,18.90
2023-04-10T07:28:32.614Z,18.94
2023-04-10T07:29:32.610Z,18.92
2023-04-10T07:30:32.655Z,18.92
2023-04-10T07:31:32.745Z,18.95
2023-04-10T07:32:32.829Z,18.92
2023-04-10T07:33:32.757Z,18.90
2023-04-10T07:34:32.751Z,18.93
2023-04-10T07:35:32.780Z,18.88
2023-04-10T07:36:32.800Z,18.91
2023-04-10T07:37:32.838Z,18.89
2023-04-10T07:38:32.859Z,18.85
2023-04-10T07:39:32.898Z,18.85
2023-04-10T07:40:32.958Z,18.85
2023-04-10T07:41:32.985Z,18.79
2023-04-10T07:42:32.995Z,18.78
2023-04-10T07:43:33.018Z,18.82
2023-04-10T07:44:33.054Z,18.79
2023-04-10T07:45:33.111Z,18.81
2023-04-10T07:46:33.123Z,18.82
2023-04-10T07:47:33.143Z,18.76
2023-04-10T07:48:33.179Z,18.76
2023-04-10T07:49:33.213Z,18.73
2023-04-10T07:50:33.470Z,18.72
2023-04-10T07:51:35.175Z,18.67
2023-04-10T07:52:33.306Z,18.68
2023-04-10T07:53:33.311Z,18.69
2023-04-10T07:54:33.352Z,18.67
2023-04-10T07:55:33.389Z,18.66
2023-04-10T07:56:33.409Z,18.56
2023-04-10T07:57:33.448Z,18.50
2023-04-10T07:58:33.469Z,18.54
2023-04-10T07:59:33.519Z,18.52
2023-04-10T08:00:33.557Z,18.51
2023-04-10T08:01:33.594Z,18.51
2023-04-10T08:02:33.707Z,18.49
2023-04-10T08:03:33.703Z,18.50
2023-04-10T08:04:33.853Z,18.52
2023-04-10T08:05:33.708Z,18.50
2023-04-10T08:06:33.720Z,18.52
2023-04-10T08:07:33.733Z,18.47
2023-04-10T08:08:33.764Z,18.51
2023-04-10T08:09:33.783Z,18.53
2023-04-10T08:10:33.819Z,18.53
2023-04-10T08:11:35.254Z,18.55
2023-04-10T08:12:33.840Z,18.45
2023-04-10T08:13:33.817Z,18.51
2023-04-10T08:14:33.778Z,18.51
2023-04-10T08:15:33.786Z,18.50
2023-04-10T08:16:33.771Z,18.57
2023-04-10T08:17:33.771Z,18.62
2023-04-10T08:18:33.738Z,18.54
2023-04-10T08:19:33.708Z,18.45
2023-04-10T08:20:33.685Z,18.44
2023-04-10T08:21:33.680Z,18.33
2023-04-10T08:22:33.686Z,18.28
2023-04-10T08:23:33.634Z,18.26
2023-04-10T08:24:33.629Z,18.26
2023-04-10T08:25:33.595Z,18.26
2023-04-10T08:26:33.579Z,18.21
2023-04-10T08:27:33.552Z,18.14
2023-04-10T08:28:33.539Z,18.06
2023-04-10T08:29:33.522Z,18.06
2023-04-10T08:30:33.563Z,18.05
2023-04-10T08:31:33.554Z,18.02
2023-04-10T08:32:33.505Z,17.95
2023-04-10T08:33:33.455Z,17.93
2023-04-10T08:34:33.456Z,17.88
2023-04-10T08:35:33.469Z,17.76
2023-04-10T08:36:33.439Z,17.73
2023-04-10T08:37:33.415Z,17.69
2023-04-10T08:38:33.386Z,17.68
2023-04-10T08:39:33.368Z,17.67
2023-04-10T08:40:33.391Z,17.51
2023-04-10T08:41:33.354Z,17.59
2023-04-10T08:42:34.617Z,17.51
2023-04-10T08:43:33.408Z,17.45
2023-04-10T08:44:33.413Z,17.39
2023-04-10T08:45:33.486Z,17.43
2023-04-10T08:46:33.496Z,17.80
2023-04-10T08:47:33.525Z,17.90
2023-04-10T08:48:33.458Z,17.98
2023-04-10T08:49:33.445Z,18.01
2023-04-10T08:50:33.417Z,18.03
2023-04-10T08:51:33.412Z,18.01
2023-04-10T08:52:33.426Z,18.02
2023-04-10T08:53:33.441Z,18.08
2023-04-10T08:54:33.465Z,18.09
2023-04-10T08:55:33.495Z,18.14
2023-04-10T08:56:33.537Z,18.11
2023-04-10T08:57:33.563Z,18.08
2023-04-10T08:58:33.613Z,18.09
2023-04-10T08:59:33.654Z,18.10
2023-04-10T09:00:33.669Z,18.10
2023-04-10T09:01:33.709Z,18.10
2023-04-10T09:02:33.921Z,18.14
2023-04-10T09:03:33.787Z,18.20
2023-04-10T09:04:33.792Z,18.23
2023-04-10T09:05:33.697Z,18.24
2023-04-10T09:06:33.695Z,18.26
2023-04-10T09:07:33.697Z,18.32
2023-04-10T09:08:33.696Z,18.33
2023-04-10T09:09:33.667Z,18.34
2023-04-10T09:10:33.658Z,18.39
2023-04-10T09:11:33.631Z,18.44
2023-04-10T09:12:33.622Z,18.44
2023-04-10T09:13:33.597Z,18.47
2023-04-10T09:14:33.598Z,18.50
2023-04-10T09:15:33.592Z,18.54
2023-04-10T09:16:33.588Z,18.56
2023-04-10T09:17:33.547Z,18.59
2023-04-10T09:18:33.501Z,18.59
2023-04-10T09:19:33.489Z,18.62
2023-04-10T09:20:33.487Z,18.64
2023-04-10T09:21:33.508Z,18.67
2023-04-10T09:22:33.551Z,18.69
2023-04-10T09:23:33.554Z,18.74
2023-04-10T09:24:34.223Z,18.74
2023-04-10T09:25:33.620Z,18.76
2023-04-10T09:26:33.793Z,18.78
2023-04-10T09:27:33.746Z,18.78
2023-04-10T09:28:33.744Z,18.79
2023-04-10T09:29:33.774Z,18.83
2023-04-10T09:30:33.811Z,18.83
2023-04-10T09:31:33.866Z,18.86
2023-04-10T09:32:33.889Z,18.89
2023-04-10T09:33:33.890Z,18.90
2023-04-10T09:34:33.928Z,18.90
2023-04-10T09:35:33.936Z,18.93
2023-04-10T09:36:33.977Z,18.96
2023-04-10T09:37:33.988Z,18.96
2023-04-10T09:38:34.012Z,18.97
2023-04-10T09:39:34.042Z,18.99
2023-04-10T09:40:34.045Z,18.97
2023-04-10T09:41:34.044Z,19.00
2023-04-10T09:42:34.086Z,19.01
2023-04-10T09:43:34.101Z,19.03
2023-04-10T09:44:34.077Z,19.02
2023-04-10T09:45:34.103Z,19.05
2023-04-10T09:46:34.129Z,19.08
2023-04-10T09:47:34.137Z,19.06
2023-04-10T09:48:34.121Z,19.08
2023-04-10T09:49:34.126Z,19.11
2023-04-10T09:50:37.157Z,19.13
2023-04-10T09:51:35.085Z,19.15
2023-04-10T09:52:34.060Z,19.14
2023-04-10T09:53:34.014Z,19.15
2023-04-10T09:54:33.990Z,19.18
2023-04-10T09:55:33.961Z,19.20
2023-04-10T09:56:33.936Z,19.21
2023-04-10T09:57:33.875Z,19.20
2023-04-10T09:58:33.845Z,19.22
2023-04-10T09:59:33.840Z,19.23
2023-04-10T10:00:33.787Z,19.24
2023-04-10T10:01:33.776Z,19.26
2023-04-10T10:02:33.970Z,19.29
2023-04-10T10:03:33.739Z,19.29
2023-04-10T10:04:33.670Z,19.31
2023-04-10T10:05:33.677Z,19.32
2023-04-10T10:06:33.647Z,19.34
2023-04-10T10:07:33.606Z,19.35
2023-04-10T10:08:33.622Z,19.39
2023-04-10T10:09:33.588Z,19.39
2023-04-10T10:10:33.549Z,19.39
2023-04-10T10:11:33.570Z,19.43
2023-04-10T10:12:33.524Z,19.42
2023-04-10T10:13:33.543Z,19.44
2023-04-10T10:14:33.491Z,19.44
2023-04-10T10:15:33.442Z,19.47
2023-04-10T10:16:33.446Z,19.47
2023-04-10T10:17:33.401Z,19.50
2023-04-10T10:18:33.370Z,19.51
2023-04-10T10:19:33.356Z,19.52
2023-04-10T10:20:34.638Z,19.52
2023-04-10T10:21:33.308Z,19.55
2023-04-10T10:22:33.296Z,19.57
2023-04-10T10:23:33.288Z,19.56
2023-04-10T10:24:33.270Z,19.57
2023-04-10T10:25:33.274Z,19.59
2023-04-10T10:26:33.275Z,19.62
2023-04-10T10:27:33.253Z,19.61
2023-04-10T10:28:33.221Z,19.62
2023-04-10T10:29:33.212Z,19.65
2023-04-10T10:30:33.212Z,19.66
2023-04-10T10:31:33.194Z,19.65
2023-04-10T10:32:33.252Z,19.68
2023-04-10T10:33:33.196Z,19.66
2023-04-10T10:34:33.129Z,19.68
2023-04-10T10:35:33.098Z,19.69
2023-04-10T10:36:33.090Z,19.72
2023-04-10T10:37:33.009Z,19.72
2023-04-10T10:38:32.948Z,19.72
2023-04-10T10:39:32.925Z,19.72
2023-04-10T10:40:32.916Z,19.72
2023-04-10T10:41:32.842Z,19.74
2023-04-10T10:42:32.868Z,19.75
2023-04-10T10:43:32.893Z,19.76
2023-04-10T10:44:32.914Z,19.78
2023-04-10T10:45:32.941Z,19.78
2023-04-10T10:46:32.975Z,19.80
2023-04-10T10:47:33.019Z,19.83
2023-04-10T10:48:32.980Z,19.79
2023-04-10T10:49:32.995Z,19.82
2023-04-10T10:50:33.029Z,19.82
2023-04-10T10:51:33.060Z,19.83
2023-04-10T10:52:32.971Z,19.86
2023-04-10T10:53:32.975Z,19.85
2023-04-10T10:54:32.890Z,19.87
2023-04-10T10:55:32.852Z,19.88
2023-04-10T10:56:32.833Z,19.89
2023-04-10T10:57:32.765Z,19.90
2023-04-10T10:58:32.705Z,19.89
2023-04-10T10:59:32.704Z,19.91
2023-04-10T11:00:32.649Z,19.92
2023-04-10T11:01:32.590Z,19.90
2023-04-10T11:02:32.718Z,19.94
2023-04-10T11:03:32.684Z,19.94
2023-04-10T11:04:32.530Z,19.94
2023-04-10T11:05:32.522Z,19.95
2023-04-10T11:06:32.542Z,19.96
2023-04-10T11:07:32.522Z,19.94
2023-04-10T11:08:32.502Z,19.95
2023-04-10T11:09:32.511Z,19.98
2023-04-10T11:10:34.590Z,19.95
2023-04-10T11:11:32.728Z,19.98
2023-04-10T11:12:32.692Z,19.98
2023-04-10T11:13:32.686Z,19.89
2023-04-10T11:14:32.699Z,19.89
2023-04-10T11:15:32.703Z,19.81
2023-04-10T11:16:32.661Z,19.79
2023-04-10T11:17:32.692Z,19.80
2023-04-10T11:18:32.660Z,19.78
2023-04-10T11:19:32.644Z,19.77
2023-04-10T11:20:32.667Z,19.69
2023-04-10T11:21:32.615Z,19.73
2023-04-10T11:22:32.618Z,19.68
2023-04-10T11:23:32.609Z,19.66
2023-04-10T11:24:32.605Z,19.62
2023-04-10T11:25:32.604Z,19.65
2023-04-10T11:26:32.584Z,19.68
2023-04-10T11:27:32.552Z,19.73
2023-04-10T11:28:32.526Z,19.72
2023-04-10T11:29:32.527Z,19.72
2023-04-10T11:30:32.503Z,19.72
2023-04-10T11:31:32.477Z,19.74
2023-04-10T11:32:32.460Z,19.76
2023-04-10T11:33:32.459Z,19.79
2023-04-10T11:34:32.449Z,19.79
2023-04-10T11:35:32.480Z,19.82
2023-04-10T11:36:32.374Z,19.82
2023-04-10T11:37:32.363Z,19.85
2023-04-10T11:38:32.338Z,19.87
2023-04-10T11:39:32.294Z,19.89
2023-04-10T11:40:32.248Z,19.88
2023-04-10T11:41:32.214Z,19.91
2023-04-10T11:42:32.200Z,19.93
2023-04-10T11:43:32.267Z,19.92
2023-04-10T11:44:32.313Z,19.95
2023-04-10T11:45:32.353Z,19.98
2023-04-10T11:46:32.562Z,19.99
2023-04-10T11:47:32.515Z,19.99
2023-04-10T11:48:32.423Z,20.00
2023-04-10T11:49:32.378Z,20.00
2023-04-10T11:50:32.341Z,20.02
2023-04-10T11:51:32.304Z,20.02
2023-04-10T11:52:32.262Z,20.05
2023-04-10T11:53:32.269Z,20.02
2023-04-10T11:54:32.203Z,20.05
2023-04-10T11:55:32.175Z,20.06
2023-04-10T11:56:32.147Z,20.07
2023-04-10T11:57:32.121Z,20.08
2023-04-10T11:58:32.117Z,20.11
2023-04-10T11:59:32.057Z,20.12
2023-04-10T12:00:32.034Z,20.09
2023-04-10T12:01:32.080Z,20.13
2023-04-10T12:02:32.197Z,20.13
2023-04-10T12:03:32.253Z,20.15
2023-04-10T12:04:32.182Z,20.15
2023-04-10T12:05:32.095Z,20.17
2023-04-10T12:06:32.010Z,20.18
2023-04-10T12:07:33.054Z,20.17
2023-04-10T12:08:31.921Z,20.16
2023-04-10T12:09:31.858Z,20.18
2023-04-10T12:10:31.796Z,20.20
2023-04-10T12:11:31.727Z,20.19
2023-04-10T12:12:31.685Z,20.21
2023-04-10T12:13:31.647Z,20.22
2023-04-10T12:14:31.605Z,20.23
2023-04-10T12:15:31.600Z,20.23
2023-04-10T12:16:31.489Z,20.24
2023-04-10T12:17:31.493Z,20.23
2023-04-10T12:18:31.408Z,20.26
2023-04-10T12:19:31.420Z,20.27
2023-04-10T12:20:31.450Z,20.26
2023-04-10T12:21:31.479Z,20.27
2023-04-10T12:22:31.481Z,20.27
2023-04-10T12:23:31.495Z,20.28
2023-04-10T12:24:31.497Z,20.30
2023-04-10T12:25:31.518Z,20.30
2023-04-10T12:26:31.526Z,20.30
2023-04-10T12:27:31.534Z,20.32
2023-04-10T12:28:31.565Z,20.33
2023-04-10T12:29:31.581Z,20.34
2023-04-10T12:30:31.584Z,20.33
2023-04-10T12:31:31.692Z,20.34
2023-04-10T12:32:31.672Z,20.35
2023-04-10T12:33:31.646Z,20.36
2023-04-10T12:34:31.612Z,20.37
2023-04-10T12:35:31.657Z,20.38
2023-04-10T12:36:31.626Z,20.40
2023-04-10T12:37:31.631Z,20.38
2023-04-10T12:38:31.670Z,20.40
2023-04-10T12:39:31.676Z,20.40
2023-04-10T12:40:31.709Z,20.43
2023-04-10T12:41:31.701Z,20.43
2023-04-10T12:42:31.757Z,20.45
2023-04-10T12:43:31.659Z,20.46
2023-04-10T12:44:31.573Z,20.44
2023-04-10T12:45:31.512Z,20.47
2023-04-10T12:46:31.480Z,20.44
2023-04-10T12:47:31.445Z,20.47
2023-04-10T12:48:31.368Z,20.47
2023-04-10T12:49:31.299Z,20.49
2023-04-10T12:50:31.305Z,20.49
2023-04-10T12:51:31.210Z,20.48
2023-04-10T12:52:31.219Z,20.49